sensor_id;sensor_type;location;lat;lon;timestamp;pressure;altitude;pressure_sealevel;temperature;humidity
69402;BME280;56589;51.992;5.924;2023-02-18T00:02:22;101623.41;;;9.45;84.64
69402;BME280;56589;51.992;5.924;2023-02-18T00:04:48;101628.66;;;9.45;84.69
69402;BME280;56589;51.992;5.924;2023-02-18T00:07:14;101611.28;;;9.42;84.74
69402;BME280;56589;51.992;5.924;2023-02-18T00:09:39;101619.13;;;9.42;84.83
69402;BME280;56589;51.992;5.924;2023-02-18T00:12:05;101613.91;;;9.42;84.98
69402;BME280;56589;51.992;5.924;2023-02-18T00:14:34;101614.91;;;9.40;84.77
69402;BME280;56589;51.992;5.924;2023-02-18T00:17:00;101597.47;;;9.39;85.11
69402;BME280;56589;51.992;5.924;2023-02-18T00:19:26;101602.00;;;9.35;84.87
69402;BME280;56589;51.992;5.924;2023-02-18T00:21:51;101603.00;;;9.33;84.90
69402;BME280;56589;51.992;5.924;2023-02-18T00:24:17;101611.78;;;9.32;85.02
69402;BME280;56589;51.992;5.924;2023-02-18T00:26:44;101607.44;;;9.31;85.17
69402;BME280;56589;51.992;5.924;2023-02-18T00:29:10;101603.13;;;9.30;85.32
69402;BME280;56589;51.992;5.924;2023-02-18T00:31:39;101606.03;;;9.23;85.50
69402;BME280;56589;51.992;5.924;2023-02-18T00:34:05;101607.84;;;9.21;85.39
69402;BME280;56589;51.992;5.924;2023-02-18T00:36:31;101599.97;;;9.21;85.45
69402;BME280;56589;51.992;5.924;2023-02-18T00:38:58;101608.66;;;9.23;85.85
69402;BME280;56589;51.992;5.924;2023-02-18T00:41:27;101600.78;;;9.23;85.55
69402;BME280;56589;51.992;5.924;2023-02-18T00:43:54;101596.44;;;9.22;85.84
69402;BME280;56589;51.992;5.924;2023-02-18T00:46:20;101585.09;;;9.22;85.59
69402;BME280;56589;51.992;5.924;2023-02-18T00:48:50;101586.03;;;9.21;85.84
69402;BME280;56589;51.992;5.924;2023-02-18T00:51:16;101582.69;;;9.17;86.23
69402;BME280;56589;51.992;5.924;2023-02-18T00:53:42;101578.28;;;9.18;85.95
69402;BME280;56589;51.992;5.924;2023-02-18T00:56:08;101562.56;;;9.18;85.97
69402;BME280;56589;51.992;5.924;2023-02-18T00:58:35;101567.81;;;9.18;86.10
69402;BME280;56589;51.992;5.924;2023-02-18T01:01:03;101560.81;;;9.18;85.83
69402;BME280;56589;51.992;5.924;2023-02-18T01:03:30;101562.53;;;9.19;86.17
69402;BME280;56589;51.992;5.924;2023-02-18T01:05:58;101574.78;;;9.19;86.15
69402;BME280;56589;51.992;5.924;2023-02-18T01:08:24;101565.19;;;9.18;86.24
69402;BME280;56589;51.992;5.924;2023-02-18T01:10:56;101577.41;;;9.19;86.24
69402;BME280;56589;51.992;5.924;2023-02-18T01:13:23;101565.19;;;9.18;86.40
69402;BME280;56589;51.992;5.924;2023-02-18T01:15:50;101575.69;;;9.18;85.91
69402;BME280;56589;51.992;5.924;2023-02-18T01:18:16;101565.19;;;9.18;86.35
69402;BME280;56589;51.992;5.924;2023-02-18T01:20:43;101571.25;;;9.20;86.15
69402;BME280;56589;51.992;5.924;2023-02-18T01:23:12;101566.91;;;9.19;86.41
69402;BME280;56589;51.992;5.924;2023-02-18T01:25:39;101563.41;;;9.18;86.01
69402;BME280;56589;51.992;5.924;2023-02-18T01:28:07;101554.78;;;9.16;86.45
69402;BME280;56589;51.992;5.924;2023-02-18T01:30:35;101561.69;;;9.19;86.49
69402;BME280;56589;51.992;5.924;2023-02-18T01:33:01;101559.91;;;9.19;85.97
69402;BME280;56589;51.992;5.924;2023-02-18T01:35:27;101559.81;;;9.21;86.12
69402;BME280;56589;51.992;5.924;2023-02-18T01:37:53;101558.97;;;9.20;86.34
69402;BME280;56589;51.992;5.924;2023-02-18T01:40:24;101548.50;;;9.20;86.45
69402;BME280;56589;51.992;5.924;2023-02-18T01:42:54;101549.28;;;9.22;86.23
69402;BME280;56589;51.992;5.924;2023-02-18T01:48:35;101537.94;;;9.22;86.24
69402;BME280;56589;51.992;5.924;2023-02-18T01:51:09;101540.53;;;9.23;86.12
69402;BME280;56589;51.992;5.924;2023-02-18T01:53:44;101536.06;;;9.26;85.94
69402;BME280;56589;51.992;5.924;2023-02-18T01:56:21;101531.59;;;9.28;85.88
69402;BME280;56589;51.992;5.924;2023-02-18T01:58:54;101520.97;;;9.31;85.85
69402;BME280;56589;51.992;5.924;2023-02-18T02:01:24;101532.44;;;9.28;85.87
69402;BME280;56589;51.992;5.924;2023-02-18T02:03:51;101530.59;;;9.30;85.79
69402;BME280;56589;51.992;5.924;2023-02-18T02:06:20;101528.06;;;9.29;86.28
69402;BME280;56589;51.992;5.924;2023-02-18T02:08:48;101517.66;;;9.27;86.26
69402;BME280;56589;51.992;5.924;2023-02-18T02:11:29;101507.94;;;9.29;85.89
69402;BME280;56589;51.992;5.924;2023-02-18T02:14:28;101510.47;;;9.31;86.05
69402;BME280;56589;51.992;5.924;2023-02-18T02:17:09;101509.63;;;9.30;85.93
69402;BME280;56589;51.992;5.924;2023-02-18T02:20:13;101500.00;;;9.31;85.93
69402;BME280;56589;51.992;5.924;2023-02-18T02:23:31;101494.84;;;9.29;86.18
69402;BME280;56589;51.992;5.924;2023-02-18T02:33:39;101464.66;;;9.20;86.35
69402;BME280;56589;51.992;5.924;2023-02-18T02:36:29;101456.81;;;9.20;86.58
69402;BME280;56589;51.992;5.924;2023-02-18T02:39:05;101450.63;;;9.21;86.70
69402;BME280;56589;51.992;5.924;2023-02-18T02:41:45;101452.28;;;9.24;86.41
69402;BME280;56589;51.992;5.924;2023-02-18T02:44:20;101454.91;;;9.24;86.66
69402;BME280;56589;51.992;5.924;2023-02-18T02:47:00;101439.13;;;9.26;86.96
69402;BME280;56589;51.992;5.924;2023-02-18T02:49:37;101431.25;;;9.26;86.89
69402;BME280;56589;51.992;5.924;2023-02-18T02:52:17;101424.25;;;9.26;86.96
69402;BME280;56589;51.992;5.924;2023-02-18T02:54:48;101411.06;;;9.28;87.00
69402;BME280;56589;51.992;5.924;2023-02-18T02:57:48;101412.63;;;9.32;86.86
69402;BME280;56589;51.992;5.924;2023-02-18T03:00:17;101406.59;;;9.30;87.04
69402;BME280;56589;51.992;5.924;2023-02-18T03:03:05;101396.06;;;9.31;87.31
69402;BME280;56589;51.992;5.924;2023-02-18T03:05:53;101389.03;;;9.32;87.16
69402;BME280;56589;51.992;5.924;2023-02-18T03:08:48;101381.94;;;9.34;87.46
69402;BME280;56589;51.992;5.924;2023-02-18T03:11:21;101382.78;;;9.34;87.45
69402;BME280;56589;51.992;5.924;2023-02-18T03:13:56;101371.28;;;9.37;87.17
69402;BME280;56589;51.992;5.924;2023-02-18T03:16:34;101372.00;;;9.40;87.34
69402;BME280;56589;51.992;5.924;2023-02-18T03:19:09;101364.97;;;9.41;87.69
69402;BME280;56589;51.992;5.924;2023-02-18T03:21:45;101363.13;;;9.43;87.46
69402;BME280;56589;51.992;5.924;2023-02-18T03:24:20;101356.97;;;9.44;87.65
69402;BME280;56589;51.992;5.924;2023-02-18T03:26:54;101353.44;;;9.45;87.89
69402;BME280;56589;51.992;5.924;2023-02-18T03:29:24;101341.09;;;9.47;87.81
69402;BME280;56589;51.992;5.924;2023-02-18T03:31:55;101339.22;;;9.49;87.64
69402;BME280;56589;51.992;5.924;2023-02-18T03:34:28;101338.31;;;9.50;87.97
69402;BME280;56589;51.992;5.924;2023-02-18T03:36:59;101334.59;;;9.54;88.08
69402;BME280;56589;51.992;5.924;2023-02-18T03:39:30;101331.97;;;9.54;87.85
69402;BME280;56589;51.992;5.924;2023-02-18T03:41:58;101341.47;;;9.57;87.81
69402;BME280;56589;51.992;5.924;2023-02-18T03:44:25;101335.31;;;9.58;87.71
69402;BME280;56589;51.992;5.924;2023-02-18T03:46:51;101331.75;;;9.59;87.67
69402;BME280;56589;51.992;5.924;2023-02-18T03:49:17;101334.28;;;9.60;88.10
69402;BME280;56589;51.992;5.924;2023-02-18T03:51:43;101318.56;;;9.60;88.08
69402;BME280;56589;51.992;5.924;2023-02-18T03:54:09;101311.53;;;9.61;88.02
69402;BME280;56589;51.992;5.924;2023-02-18T03:56:38;101299.28;;;9.61;88.24
69402;BME280;56589;51.992;5.924;2023-02-18T03:59:07;101292.25;;;9.62;88.12
69402;BME280;56589;51.992;5.924;2023-02-18T04:01:35;101295.66;;;9.64;88.17
69402;BME280;56589;51.992;5.924;2023-02-18T04:04:01;101286.13;;;9.63;88.37
69402;BME280;56589;51.992;5.924;2023-02-18T04:06:28;101282.56;;;9.64;87.85
69402;BME280;56589;51.992;5.924;2023-02-18T04:08:54;101274.69;;;9.64;88.00
69402;BME280;56589;51.992;5.924;2023-02-18T04:11:20;101278.16;;;9.64;88.46
69402;BME280;56589;51.992;5.924;2023-02-18T04:13:50;101274.59;;;9.65;88.50
69402;BME280;56589;51.992;5.924;2023-02-18T04:16:16;101268.44;;;9.66;88.31
69402;BME280;56589;51.992;5.924;2023-02-18T04:18:42;101270.06;;;9.69;88.49
69402;BME280;56589;51.992;5.924;2023-02-18T04:21:07;101261.25;;;9.70;88.57
69402;BME280;56589;51.992;5.924;2023-02-18T04:23:33;101266.50;;;9.70;88.11
69402;BME280;56589;51.992;5.924;2023-02-18T04:26:00;101266.50;;;9.70;88.12
69402;BME280;56589;51.992;5.924;2023-02-18T04:28:25;101261.16;;;9.71;88.15
69402;BME280;56589;51.992;5.924;2023-02-18T04:30:54;101262.84;;;9.72;88.48
69402;BME280;56589;51.992;5.924;2023-02-18T04:33:20;101274.97;;;9.75;88.60
69402;BME280;56589;51.992;5.924;2023-02-18T04:35:46;101267.97;;;9.75;88.63
69402;BME280;56589;51.992;5.924;2023-02-18T04:38:11;101256.53;;;9.76;88.34
69402;BME280;56589;51.992;5.924;2023-02-18T04:40:38;101256.53;;;9.76;88.55
69402;BME280;56589;51.992;5.924;2023-02-18T04:43:04;101247.75;;;9.77;88.09
69402;BME280;56589;51.992;5.924;2023-02-18T04:45:29;101251.28;;;9.76;88.33
69402;BME280;56589;51.992;5.924;2023-02-18T04:47:58;101243.53;;;9.75;88.16
69402;BME280;56589;51.992;5.924;2023-02-18T04:50:23;101240.91;;;9.75;88.55
69402;BME280;56589;51.992;5.924;2023-02-18T04:52:49;101238.31;;;9.73;88.61
69402;BME280;56589;51.992;5.924;2023-02-18T04:55:15;101237.44;;;9.74;88.73
69402;BME280;56589;51.992;5.924;2023-02-18T04:57:41;101231.41;;;9.72;88.87
69402;BME280;56589;51.992;5.924;2023-02-18T05:00:09;101242.81;;;9.71;88.72
69402;BME280;56589;51.992;5.924;2023-02-18T05:02:40;101221.00;;;9.71;88.89
69402;BME280;56589;51.992;5.924;2023-02-18T05:05:09;101219.41;;;9.68;89.02
69402;BME280;56589;51.992;5.924;2023-02-18T05:07:36;101206.19;;;9.70;89.13
69402;BME280;56589;51.992;5.924;2023-02-18T05:10:02;101207.97;;;9.69;89.01
69402;BME280;56589;51.992;5.924;2023-02-18T05:12:30;101208.81;;;9.70;88.52
69402;BME280;56589;51.992;5.924;2023-02-18T05:14:56;101189.63;;;9.69;88.67
69402;BME280;56589;51.992;5.924;2023-02-18T05:17:22;101194.88;;;9.69;88.93
69402;BME280;56589;51.992;5.924;2023-02-18T05:19:47;101207.13;;;9.69;89.03
69402;BME280;56589;51.992;5.924;2023-02-18T05:22:16;101196.69;;;9.67;88.99
69402;BME280;56589;51.992;5.924;2023-02-18T05:24:41;101200.16;;;9.68;88.79
69402;BME280;56589;51.992;5.924;2023-02-18T05:27:07;101191.31;;;9.70;88.89
69402;BME280;56589;51.992;5.924;2023-02-18T05:29:33;101194.09;;;9.67;88.76
69402;BME280;56589;51.992;5.924;2023-02-18T05:31:59;101200.16;;;9.68;89.14
69402;BME280;56589;51.992;5.924;2023-02-18T05:34:25;101199.31;;;9.67;88.79
69402;BME280;56589;51.992;5.924;2023-02-18T05:36:51;101178.44;;;9.66;89.16
69402;BME280;56589;51.992;5.924;2023-02-18T05:39:19;101190.72;;;9.65;89.21
69402;BME280;56589;51.992;5.924;2023-02-18T05:41:45;101175.81;;;9.66;89.08
69402;BME280;56589;51.992;5.924;2023-02-18T05:44:11;101186.41;;;9.64;88.81
69402;BME280;56589;51.992;5.924;2023-02-18T05:46:37;101194.34;;;9.63;89.32
69402;BME280;56589;51.992;5.924;2023-02-18T05:49:03;101172.53;;;9.62;89.28
69402;BME280;56589;51.992;5.924;2023-02-18T05:51:29;101169.13;;;9.60;89.14
69402;BME280;56589;51.992;5.924;2023-02-18T05:53:54;101169.31;;;9.57;89.50
69402;BME280;56589;51.992;5.924;2023-02-18T05:56:23;101174.69;;;9.54;89.37
69402;BME280;56589;51.992;5.924;2023-02-18T05:58:49;101173.00;;;9.53;89.20
69402;BME280;56589;51.992;5.924;2023-02-18T06:01:15;101162.63;;;9.52;89.36
69402;BME280;56589;51.992;5.924;2023-02-18T06:03:41;101165.16;;;9.53;89.36
69402;BME280;56589;51.992;5.924;2023-02-18T06:06:07;101160.09;;;9.50;89.37
69402;BME280;56589;51.992;5.924;2023-02-18T06:08:33;101160.09;;;9.50;89.18
69402;BME280;56589;51.992;5.924;2023-02-18T06:10:59;101171.47;;;9.49;89.07
69402;BME280;56589;51.992;5.924;2023-02-18T06:13:27;101165.34;;;9.50;89.39
69402;BME280;56589;51.992;5.924;2023-02-18T06:15:53;101164.47;;;9.49;89.22
69402;BME280;56589;51.992;5.924;2023-02-18T06:18:19;101156.69;;;9.48;89.27
69402;BME280;56589;51.992;5.924;2023-02-18T06:20:45;101152.38;;;9.47;89.38
69402;BME280;56589;51.992;5.924;2023-02-18T06:23:12;101167.34;;;9.45;89.50
69402;BME280;56589;51.992;5.924;2023-02-18T06:25:38;101166.50;;;9.44;89.42
69402;BME280;56589;51.992;5.924;2023-02-18T06:28:04;101164.88;;;9.42;89.47
69402;BME280;56589;51.992;5.924;2023-02-18T06:30:33;101165.91;;;9.39;89.62
69402;BME280;56589;51.992;5.924;2023-02-18T06:32:59;101171.97;;;9.40;89.49
69402;BME280;56589;51.992;5.924;2023-02-18T06:35:25;101170.28;;;9.39;89.69
69402;BME280;56589;51.992;5.924;2023-02-18T06:37:51;101164.13;;;9.40;89.77
69402;BME280;56589;51.992;5.924;2023-02-18T06:40:16;101165.97;;;9.38;89.61
69402;BME280;56589;51.992;5.924;2023-02-18T06:42:43;101166.81;;;9.38;89.76
69402;BME280;56589;51.992;5.924;2023-02-18T06:45:09;101167.75;;;9.37;89.68
69402;BME280;56589;51.992;5.924;2023-02-18T06:47:37;101173.84;;;9.38;89.98
69402;BME280;56589;51.992;5.924;2023-02-18T06:50:05;101166.97;;;9.35;89.60
69402;BME280;56589;51.992;5.924;2023-02-18T06:52:31;101176.59;;;9.35;89.59
69402;BME280;56589;51.992;5.924;2023-02-18T06:54:57;101174.75;;;9.37;89.38
69402;BME280;56589;51.992;5.924;2023-02-18T06:57:23;101169.50;;;9.37;89.40
69402;BME280;56589;51.992;5.924;2023-02-18T06:59:49;101173.00;;;9.37;89.28
69402;BME280;56589;51.992;5.924;2023-02-18T07:02:15;101170.38;;;9.37;89.44
69402;BME280;56589;51.992;5.924;2023-02-18T07:04:46;101175.69;;;9.36;89.70
69402;BME280;56589;51.992;5.924;2023-02-18T07:07:12;101178.38;;;9.34;89.39
69402;BME280;56589;51.992;5.924;2023-02-18T07:09:38;101177.63;;;9.32;89.75
69402;BME280;56589;51.992;5.924;2023-02-18T07:12:04;101181.00;;;9.34;89.92
69402;BME280;56589;51.992;5.924;2023-02-18T07:14:31;101173.22;;;9.33;89.69
69402;BME280;56589;51.992;5.924;2023-02-18T07:16:58;101173.38;;;9.30;89.87
69402;BME280;56589;51.992;5.924;2023-02-18T07:19:24;101154.19;;;9.29;89.59
69402;BME280;56589;51.992;5.924;2023-02-18T07:21:52;101168.22;;;9.28;89.65
69402;BME280;56589;51.992;5.924;2023-02-18T07:24:21;101161.22;;;9.29;89.75
69402;BME280;56589;51.992;5.924;2023-02-18T07:26:46;101180.47;;;9.28;89.83
69402;BME280;56589;51.992;5.924;2023-02-18T07:29:12;101175.25;;;9.28;89.40
69402;BME280;56589;51.992;5.924;2023-02-18T07:31:38;101158.75;;;9.26;89.80
69402;BME280;56589;51.992;5.924;2023-02-18T07:34:04;101168.31;;;9.27;89.31
69402;BME280;56589;51.992;5.924;2023-02-18T07:36:29;101179.56;;;9.29;89.15
69402;BME280;56589;51.992;5.924;2023-02-18T07:38:58;101166.53;;;9.27;89.54
69402;BME280;56589;51.992;5.924;2023-02-18T07:41:24;101172.63;;;9.28;89.13
69402;BME280;56589;51.992;5.924;2023-02-18T07:43:49;101172.72;;;9.26;89.54
69402;BME280;56589;51.992;5.924;2023-02-18T07:46:16;101171.88;;;9.26;89.03
69402;BME280;56589;51.992;5.924;2023-02-18T07:48:41;101165.69;;;9.27;89.37
69402;BME280;56589;51.992;5.924;2023-02-18T07:51:08;101186.66;;;9.27;89.43
69402;BME280;56589;51.992;5.924;2023-02-18T07:53:36;101163.06;;;9.27;88.89
69402;BME280;56589;51.992;5.924;2023-02-18T07:56:06;101176.25;;;9.25;89.37
69402;BME280;56589;51.992;5.924;2023-02-18T07:58:34;101160.53;;;9.25;88.91
69402;BME280;56589;51.992;5.924;2023-02-18T08:01:04;101162.28;;;9.25;88.88
69402;BME280;56589;51.992;5.924;2023-02-18T08:03:31;101172.84;;;9.23;88.76
69402;BME280;56589;51.992;5.924;2023-02-18T08:05:57;101171.97;;;9.22;89.01
69402;BME280;56589;51.992;5.924;2023-02-18T08:08:25;101159.75;;;9.23;89.15
69402;BME280;56589;51.992;5.924;2023-02-18T08:10:56;101170.28;;;9.21;88.70
69402;BME280;56589;51.992;5.924;2023-02-18T08:13:26;101194.81;;;9.20;88.57
69402;BME280;56589;51.992;5.924;2023-02-18T08:15:53;101173.06;;;9.18;88.67
69402;BME280;56589;51.992;5.924;2023-02-18T08:18:22;101183.53;;;9.18;88.68
69402;BME280;56589;51.992;5.924;2023-02-18T08:20:49;101175.84;;;9.15;88.21
69402;BME280;56589;51.992;5.924;2023-02-18T08:23:17;101175.00;;;9.15;88.08
69402;BME280;56589;51.992;5.924;2023-02-18T08:25:44;101180.25;;;9.15;87.75
69402;BME280;56589;51.992;5.924;2023-02-18T08:28:10;101175.84;;;9.15;88.01
69402;BME280;56589;51.992;5.924;2023-02-18T08:30:43;101185.31;;;9.18;88.11
69402;BME280;56589;51.992;5.924;2023-02-18T08:33:09;101180.00;;;9.19;87.49
69402;BME280;56589;51.992;5.924;2023-02-18T08:35:35;101180.91;;;9.18;87.71
69402;BME280;56589;51.992;5.924;2023-02-18T08:38:01;101181.84;;;9.17;87.65
69402;BME280;56589;51.992;5.924;2023-02-18T08:40:27;101181.94;;;9.16;87.71
69402;BME280;56589;51.992;5.924;2023-02-18T08:42:52;101182.03;;;9.14;87.59
69402;BME280;56589;51.992;5.924;2023-02-18T08:45:18;101178.56;;;9.14;87.24
69402;BME280;56589;51.992;5.924;2023-02-18T08:47:47;101169.91;;;9.12;87.51
69402;BME280;56589;51.992;5.924;2023-02-18T08:50:13;101190.88;;;9.12;87.23
69402;BME280;56589;51.992;5.924;2023-02-18T08:52:38;101189.03;;;9.14;86.82
69402;BME280;56589;51.992;5.924;2023-02-18T08:55:05;101196.94;;;9.12;87.28
69402;BME280;56589;51.992;5.924;2023-02-18T08:57:32;101190.63;;;9.16;87.04
69402;BME280;56589;51.992;5.924;2023-02-18T08:59:57;101191.41;;;9.18;86.70
69402;BME280;56589;51.992;5.924;2023-02-18T09:02:23;101190.63;;;9.16;86.75
69402;BME280;56589;51.992;5.924;2023-02-18T09:04:51;101198.59;;;9.15;86.75
69402;BME280;56589;51.992;5.924;2023-02-18T09:07:17;101185.72;;;9.10;86.36
69402;BME280;56589;51.992;5.924;2023-02-18T09:09:43;101185.78;;;9.09;86.87
69402;BME280;56589;51.992;5.924;2023-02-18T09:12:09;101189.41;;;9.06;86.76
69402;BME280;56589;51.992;5.924;2023-02-18T09:14:35;101185.28;;;9.02;86.62
69402;BME280;56589;51.992;5.924;2023-02-18T09:17:00;101186.19;;;9.01;86.91
69402;BME280;56589;51.992;5.924;2023-02-18T09:19:26;101177.63;;;8.98;86.97
69402;BME280;56589;51.992;5.924;2023-02-18T09:21:54;101189.88;;;8.97;87.02
69402;BME280;56589;51.992;5.924;2023-02-18T09:24:20;101170.00;;;8.93;86.60
69402;BME280;56589;51.992;5.924;2023-02-18T09:26:46;101199.91;;;8.89;86.54
69402;BME280;56589;51.992;5.924;2023-02-18T09:29:12;101196.69;;;8.84;86.97
69402;BME280;56589;51.992;5.924;2023-02-18T09:31:38;101201.13;;;8.82;87.06
69402;BME280;56589;51.992;5.924;2023-02-18T09:34:04;101208.31;;;8.78;87.39
69402;BME280;56589;51.992;5.924;2023-02-18T09:36:30;101207.53;;;8.76;87.23
69402;BME280;56589;51.992;5.924;2023-02-18T09:38:59;101197.97;;;8.75;87.70
69402;BME280;56589;51.992;5.924;2023-02-18T09:41:32;101193.75;;;8.73;87.42
69402;BME280;56589;51.992;5.924;2023-02-18T09:44:08;101209.38;;;8.74;87.70
69402;BME280;56589;51.992;5.924;2023-02-18T09:46:46;101182.19;;;8.77;87.66
69402;BME280;56589;51.992;5.924;2023-02-18T09:49:17;101188.19;;;8.79;87.85
69402;BME280;56589;51.992;5.924;2023-02-18T09:51:47;101198.50;;;8.82;87.58
69402;BME280;56589;51.992;5.924;2023-02-18T09:54:17;101195.13;;;8.80;87.79
69402;BME280;56589;51.992;5.924;2023-02-18T09:56:45;101208.13;;;8.81;87.79
69402;BME280;56589;51.992;5.924;2023-02-18T09:59:16;101211.59;;;8.82;87.61
69402;BME280;56589;51.992;5.924;2023-02-18T10:01:47;101194.06;;;8.84;87.83
69402;BME280;56589;51.992;5.924;2023-02-18T10:04:16;101210.63;;;8.84;87.08
69402;BME280;56589;51.992;5.924;2023-02-18T10:06:47;101215.00;;;8.84;87.05
69402;BME280;56589;51.992;5.924;2023-02-18T10:09:20;101218.47;;;8.84;87.31
69402;BME280;56589;51.992;5.924;2023-02-18T10:11:51;101221.75;;;8.88;87.52
69402;BME280;56589;51.992;5.924;2023-02-18T10:14:21;101226.09;;;8.89;87.22
69402;BME280;56589;51.992;5.924;2023-02-18T10:16:48;101222.34;;;8.94;87.27
69402;BME280;56589;51.992;5.924;2023-02-18T10:19:21;101230.09;;;8.96;86.75
69402;BME280;56589;51.992;5.924;2023-02-18T10:21:51;101220.47;;;8.96;86.66
69402;BME280;56589;51.992;5.924;2023-02-18T10:24:27;101230.88;;;8.98;87.19
69402;BME280;56589;51.992;5.924;2023-02-18T10:26:57;101231.78;;;8.97;86.56
69402;BME280;56589;51.992;5.924;2023-02-18T10:29:24;101232.81;;;8.94;87.01
69402;BME280;56589;51.992;5.924;2023-02-18T10:31:56;101233.03;;;8.90;86.78
69402;BME280;56589;51.992;5.924;2023-02-18T10:34:38;101232.09;;;8.91;87.40
69402;BME280;56589;51.992;5.924;2023-02-18T10:37:12;101233.03;;;8.90;87.42
69402;BME280;56589;51.992;5.924;2023-02-18T10:40:00;101234.72;;;8.91;87.45
69402;BME280;56589;51.992;5.924;2023-02-18T10:42:42;101242.41;;;8.94;87.40
69402;BME280;56589;51.992;5.924;2023-02-18T10:45:27;101245.03;;;8.94;87.18
69402;BME280;56589;51.992;5.924;2023-02-18T10:48:18;101238.81;;;8.96;87.48
69402;BME280;56589;51.992;5.924;2023-02-18T10:50:57;101256.38;;;8.94;87.07
69402;BME280;56589;51.992;5.924;2023-02-18T10:53:32;101252.88;;;8.94;87.22
69402;BME280;56589;51.992;5.924;2023-02-18T10:56:05;101245.94;;;8.93;86.92
69402;BME280;56589;51.992;5.924;2023-02-18T10:58:33;101249.50;;;8.92;86.93
69402;BME280;56589;51.992;5.924;2023-02-18T11:01:03;101246.88;;;8.92;87.11
69402;BME280;56589;51.992;5.924;2023-02-18T11:03:40;101249.41;;;8.93;87.29
69402;BME280;56589;51.992;5.924;2023-02-18T11:06:15;101253.59;;;8.98;87.45
69402;BME280;56589;51.992;5.924;2023-02-18T11:08:47;101245.66;;;8.99;87.22
69402;BME280;56589;51.992;5.924;2023-02-18T11:11:22;101247.28;;;9.02;87.15
69402;BME280;56589;51.992;5.924;2023-02-18T11:13:53;101247.28;;;9.02;86.99
69402;BME280;56589;51.992;5.924;2023-02-18T11:16:22;101250.75;;;9.02;87.05
69402;BME280;56589;51.992;5.924;2023-02-18T11:19:00;101254.03;;;9.06;87.20
69402;BME280;56589;51.992;5.924;2023-02-18T11:21:29;101238.94;;;9.11;87.18
69402;BME280;56589;51.992;5.924;2023-02-18T11:24:07;101232.41;;;9.19;87.35
69402;BME280;56589;51.992;5.924;2023-02-18T11:26:42;101247.91;;;9.24;87.30
69402;BME280;56589;51.992;5.924;2023-02-18T11:29:14;101246.00;;;9.28;87.14
69402;BME280;56589;51.992;5.924;2023-02-18T11:31:49;101236.13;;;9.33;87.03
69402;BME280;56589;51.992;5.924;2023-02-18T11:34:19;101235.19;;;9.34;86.88
69402;BME280;56589;51.992;5.924;2023-02-18T11:36:48;101230.72;;;9.36;86.68
69402;BME280;56589;51.992;5.924;2023-02-18T11:39:21;101238.25;;;9.42;86.55
69402;BME280;56589;51.992;5.924;2023-02-18T11:41:57;101232.78;;;9.46;86.37
69402;BME280;56589;51.992;5.924;2023-02-18T11:44:28;101228.28;;;9.48;86.37
69402;BME280;56589;51.992;5.924;2023-02-18T11:47:00;101240.41;;;9.51;86.53
69402;BME280;56589;51.992;5.924;2023-02-18T11:49:27;101230.44;;;9.58;86.44
69402;BME280;56589;51.992;5.924;2023-02-18T11:52:02;101231.97;;;9.62;85.99
69402;BME280;56589;51.992;5.924;2023-02-18T11:54:30;101235.28;;;9.65;85.97
69402;BME280;56589;51.992;5.924;2023-02-18T11:57:01;101232.56;;;9.67;85.98
69402;BME280;56589;51.992;5.924;2023-02-18T11:59:32;101237.66;;;9.70;86.28
69402;BME280;56589;51.992;5.924;2023-02-18T12:02:05;101228.88;;;9.71;85.82
69402;BME280;56589;51.992;5.924;2023-02-18T12:04:56;101237.56;;;9.71;85.52
69402;BME280;56589;51.992;5.924;2023-02-18T12:07:30;101235.03;;;9.70;86.15
69402;BME280;56589;51.992;5.924;2023-02-18T12:10:13;101234.88;;;9.73;85.88
69402;BME280;56589;51.992;5.924;2023-02-18T12:12:50;101244.34;;;9.75;86.42
69402;BME280;56589;51.992;5.924;2023-02-18T12:15:25;101230.31;;;9.76;86.36
69402;BME280;56589;51.992;5.924;2023-02-18T12:18:21;101234.72;;;9.76;86.00
69402;BME280;56589;51.992;5.924;2023-02-18T12:21:10;101236.50;;;9.75;86.69
69402;BME280;56589;51.992;5.924;2023-02-18T12:23:51;101240.94;;;9.73;86.40
69402;BME280;56589;51.992;5.924;2023-02-18T12:26:26;101223.53;;;9.72;86.70
69402;BME280;56589;51.992;5.924;2023-02-18T12:29:19;101235.88;;;9.70;86.64
69402;BME280;56589;51.992;5.924;2023-02-18T12:32:11;101236.88;;;9.68;86.46
69402;BME280;56589;51.992;5.924;2023-02-18T12:34:58;101234.25;;;9.68;86.55
69402;BME280;56589;51.992;5.924;2023-02-18T12:37:48;101230.78;;;9.67;86.34
69402;BME280;56589;51.992;5.924;2023-02-18T12:40:50;101234.19;;;9.69;86.78
69402;BME280;56589;51.992;5.924;2023-02-18T12:43:35;101237.66;;;9.70;86.62
69402;BME280;56589;51.992;5.924;2023-02-18T12:46:22;101233.25;;;9.70;86.38
69402;BME280;56589;51.992;5.924;2023-02-18T12:49:13;101228.78;;;9.72;86.65
69402;BME280;56589;51.992;5.924;2023-02-18T12:51:59;101226.06;;;9.74;86.45
69402;BME280;56589;51.992;5.924;2023-02-18T12:54:46;101241.66;;;9.77;86.58
69402;BME280;56589;51.992;5.924;2023-02-18T12:57:38;101236.41;;;9.77;86.17
69402;BME280;56589;51.992;5.924;2023-02-18T13:00:30;101237.09;;;9.81;86.30
69402;BME280;56589;51.992;5.924;2023-02-18T13:03:40;101236.91;;;9.84;86.10
69402;BME280;56589;51.992;5.924;2023-02-18T13:06:21;101232.53;;;9.84;86.27
69402;BME280;56589;51.992;5.924;2023-02-18T13:09:07;101245.63;;;9.84;85.71
69402;BME280;56589;51.992;5.924;2023-02-18T13:11:44;101251.63;;;9.86;85.91
69402;BME280;56589;51.992;5.924;2023-02-18T13:14:19;101243.69;;;9.88;86.02
69402;BME280;56589;51.992;5.924;2023-02-18T13:16:51;101250.47;;;9.92;86.00
69402;BME280;56589;51.992;5.924;2023-02-18T13:19:24;101247.50;;;9.98;85.56
69402;BME280;56589;51.992;5.924;2023-02-18T13:21:54;101249.13;;;10.00;85.41
69402;BME280;56589;51.992;5.924;2023-02-18T13:24:30;101240.22;;;10.03;85.58
69402;BME280;56589;51.992;5.924;2023-02-18T13:27:05;101242.53;;;10.09;85.62
69402;BME280;56589;51.992;5.924;2023-02-18T13:29:46;101244.66;;;10.18;85.50
69402;BME280;56589;51.992;5.924;2023-02-18T13:32:25;101247.44;;;10.31;85.71